createdAt,value
2023-02-12T00:02:03.530Z,5.28
2023-02-12T00:04:30.301Z,4.85
2023-02-12T00:06:56.975Z,5.18
2023-02-12T00:09:23.646Z,4.50
2023-02-12T00:11:50.351Z,4.50
2023-02-12T00:14:17.508Z,4.78
2023-02-12T00:16:44.307Z,6.07
2023-02-12T00:19:10.963Z,6.18
2023-02-12T00:21:37.645Z,5.25
2023-02-12T00:24:04.786Z,5.07
2023-02-12T00:26:31.504Z,5.60
2023-02-12T00:28:58.253Z,5.00
2023-02-12T00:31:28.760Z,5.20
2023-02-12T00:33:57.226Z,4.78
2023-02-12T00:36:26.431Z,4.80
2023-02-12T00:38:54.802Z,5.00
2023-02-12T00:41:22.801Z,5.03
2023-02-12T00:43:50.524Z,4.72
2023-02-12T00:46:17.670Z,5.35
2023-02-12T00:48:44.925Z,5.13
2023-02-12T00:51:12.775Z,4.78
2023-02-12T00:53:39.632Z,5.25
2023-02-12T00:56:07.339Z,5.50
2023-02-12T00:58:34.079Z,5.72
2023-02-12T01:01:00.857Z,5.70
2023-02-12T01:03:27.570Z,5.68
2023-02-12T01:05:54.767Z,5.70
2023-02-12T01:08:21.763Z,6.18
2023-02-12T01:10:56.701Z,6.43
2023-02-12T01:13:25.475Z,5.60
2023-02-12T01:16:03.055Z,5.95
2023-02-12T01:18:30.001Z,6.43
2023-02-12T01:20:57.708Z,6.22
2023-02-12T01:23:24.790Z,6.55
2023-02-12T01:25:52.442Z,7.25
2023-02-12T01:28:19.388Z,6.60
2023-02-12T01:30:46.155Z,7.10
2023-02-12T01:33:12.859Z,6.57
2023-02-12T01:35:39.524Z,7.30
2023-02-12T01:38:06.227Z,7.53
2023-02-12T01:40:32.946Z,7.05
2023-02-12T01:43:03.147Z,6.30
2023-02-12T01:45:46.797Z,6.57
2023-02-12T01:48:16.282Z,6.55
2023-02-12T01:50:44.188Z,7.03
2023-02-12T01:53:19.860Z,6.57
2023-02-12T01:55:49.240Z,7.60
2023-02-12T01:58:16.954Z,8.23
2023-02-12T02:00:43.723Z,7.15
2023-02-12T02:03:10.649Z,7.22
2023-02-12T02:05:47.332Z,6.72
2023-02-12T02:08:14.372Z,6.50
2023-02-12T02:10:41.294Z,5.45
2023-02-12T02:13:27.055Z,5.85
2023-02-12T02:15:59.284Z,5.15
2023-02-12T02:18:57.667Z,5.25
2023-02-12T02:21:51.328Z,4.88
2023-02-12T02:24:43.696Z,4.97
2023-02-12T02:27:14.887Z,5.40
2023-02-12T02:29:46.981Z,5.45
2023-02-12T02:32:22.548Z,5.88
2023-02-12T02:35:12.915Z,5.55
2023-02-12T02:37:47.778Z,5.63
2023-02-12T02:40:23.396Z,5.15
2023-02-12T02:43:10.719Z,5.00
2023-02-12T02:45:46.037Z,5.28
2023-02-12T02:48:24.945Z,5.45
2023-02-12T02:50:57.730Z,5.68
2023-02-12T02:53:32.180Z,5.05
2023-02-12T02:56:01.984Z,5.10
2023-02-12T02:58:38.951Z,5.25
2023-02-12T03:01:10.906Z,5.82
2023-02-12T03:03:50.181Z,4.47
2023-02-12T03:06:30.488Z,4.55
2023-02-12T03:09:02.979Z,4.35
2023-02-12T03:14:18.914Z,4.72
2023-02-12T03:17:02.376Z,6.15
2023-02-12T03:19:40.267Z,5.88
2023-02-12T03:22:11.928Z,7.30
2023-02-12T03:24:47.048Z,5.65
2023-02-12T03:27:21.581Z,6.78
2023-02-12T03:29:48.535Z,7.15
2023-02-12T03:32:29.328Z,6.20
2023-02-12T03:35:23.418Z,5.45
2023-02-12T03:37:58.338Z,4.78
2023-02-12T03:41:00.227Z,4.72
2023-02-12T03:43:38.249Z,4.88
2023-02-12T03:46:17.229Z,4.88
2023-02-12T03:49:04.517Z,5.75
2023-02-12T03:51:34.099Z,5.38
2023-02-12T03:54:01.517Z,5.63
2023-02-12T03:56:54.066Z,5.55
2023-02-12T03:59:23.445Z,5.53
2023-02-12T04:01:52.080Z,5.53
2023-02-12T04:04:19.636Z,5.50
2023-02-12T04:06:49.171Z,6.00
2023-02-12T04:09:16.822Z,6.35
2023-02-12T04:12:11.119Z,6.32
2023-02-12T04:14:59.824Z,5.97
2023-02-12T04:17:44.284Z,5.97
2023-02-12T04:20:30.412Z,6.68
2023-02-12T04:23:19.284Z,6.25
2023-02-12T04:26:09.944Z,6.10
2023-02-12T04:28:53.723Z,6.05
2023-02-12T04:31:32.016Z,6.32
2023-02-12T04:34:22.769Z,5.82
2023-02-12T04:37:25.972Z,6.38
2023-02-12T04:39:54.068Z,6.18
2023-02-12T04:42:21.079Z,5.68
2023-02-12T04:44:47.981Z,5.45
2023-02-12T04:47:16.046Z,5.85
2023-02-12T04:49:42.999Z,6.10
2023-02-12T04:52:09.943Z,6.25
2023-02-12T04:54:36.891Z,6.07
2023-02-12T04:57:03.930Z,6.38
2023-02-12T04:59:30.693Z,5.97
2023-02-12T05:01:57.406Z,5.30
2023-02-12T05:04:24.050Z,5.15
2023-02-12T05:06:50.720Z,5.45
2023-02-12T05:09:20.136Z,5.20
2023-02-12T05:11:47.025Z,5.82
2023-02-12T05:14:13.930Z,7.70
2023-02-12T05:16:40.723Z,5.40
2023-02-12T05:19:09.444Z,5.00
2023-02-12T05:21:37.545Z,5.10
2023-02-12T05:24:04.710Z,4.13
2023-02-12T05:26:31.478Z,4.25
2023-02-12T05:28:58.189Z,4.80
2023-02-12T05:31:25.192Z,4.70
2023-02-12T05:33:52.343Z,5.57
2023-02-12T05:36:22.233Z,5.15
2023-02-12T05:38:49.571Z,5.25
2023-02-12T05:42:06.596Z,5.03
2023-02-12T05:44:33.318Z,5.18
2023-02-12T05:46:59.970Z,4.70
2023-02-12T05:49:26.732Z,7.20
2023-02-12T05:51:53.371Z,19.55
2023-02-12T05:54:20.204Z,18.83
2023-02-12T05:56:48.108Z,18.60
2023-02-12T05:59:20.463Z,18.48
2023-02-12T06:01:48.477Z,19.60
2023-02-12T06:04:20.784Z,13.73
2023-02-12T06:06:47.556Z,7.20
2023-02-12T06:09:14.634Z,7.68
2023-02-12T06:11:41.667Z,7.90
2023-02-12T06:14:12.216Z,7.25
2023-02-12T06:16:38.993Z,5.50
2023-02-12T06:19:06.289Z,5.35
2023-02-12T06:21:33.611Z,5.38
2023-02-12T06:24:00.747Z,5.47
2023-02-12T06:26:27.455Z,5.97
2023-02-12T06:28:54.409Z,5.50
2023-02-12T06:31:22.706Z,6.32
2023-02-12T06:33:50.748Z,7.05
2023-02-12T06:36:18.022Z,8.60
2023-02-12T06:38:45.057Z,10.68
2023-02-12T06:41:12.291Z,10.40
2023-02-12T06:43:42.099Z,9.68
2023-02-12T06:46:09.425Z,10.82
2023-02-12T06:48:36.641Z,9.32
2023-02-12T06:51:18.444Z,9.23
2023-02-12T06:53:45.382Z,8.02
2023-02-12T06:56:13.298Z,7.97
2023-02-12T06:58:47.037Z,7.25
2023-02-12T07:01:19.737Z,6.97
2023-02-12T07:03:54.654Z,7.32
2023-02-12T07:06:22.724Z,8.68
2023-02-12T07:08:49.795Z,9.05
2023-02-12T07:11:16.953Z,9.55
2023-02-12T07:13:45.251Z,9.35
2023-02-12T07:16:15.500Z,10.02
2023-02-12T07:18:44.383Z,9.43
2023-02-12T07:21:12.388Z,9.32
2023-02-12T07:23:39.404Z,9.35
2023-02-12T07:26:11.017Z,8.85
2023-02-12T07:28:38.139Z,7.83
2023-02-12T07:31:16.631Z,8.57
2023-02-12T07:33:44.200Z,8.15
2023-02-12T07:36:16.866Z,9.52
2023-02-12T07:38:43.744Z,8.80
2023-02-12T07:41:16.998Z,8.75
2023-02-12T07:43:45.450Z,9.45
2023-02-12T07:46:21.318Z,16.45
2023-02-12T07:48:48.644Z,13.90
2023-02-12T07:51:19.188Z,12.02
2023-02-12T07:53:46.240Z,11.10
2023-02-12T07:56:15.829Z,11.45
2023-02-12T07:58:46.983Z,11.68
2023-02-12T08:01:31.669Z,7.72
2023-02-12T08:04:00.923Z,10.52
2023-02-12T08:06:30.425Z,10.77
2023-02-12T08:08:59.260Z,17.80
2023-02-12T08:11:28.194Z,8.98
2023-02-12T08:13:55.193Z,7.18
2023-02-12T08:16:23.835Z,13.73
2023-02-12T08:18:50.940Z,11.48
2023-02-12T08:21:20.428Z,8.52
2023-02-12T08:23:50.622Z,7.85
2023-02-12T08:26:28.807Z,7.93
2023-02-12T08:29:02.289Z,7.93
2023-02-12T08:31:31.631Z,9.68
2023-02-12T08:33:59.461Z,11.07
2023-02-12T08:36:28.666Z,9.35
2023-02-12T08:38:58.252Z,10.68
2023-02-12T08:41:29.519Z,11.05
2023-02-12T08:43:59.314Z,10.23
2023-02-12T08:46:34.242Z,11.55
2023-02-12T08:49:11.246Z,9.77
2023-02-12T08:51:41.016Z,9.38
2023-02-12T08:54:10.928Z,10.20
2023-02-12T08:56:38.333Z,10.43
2023-02-12T08:59:07.063Z,10.38
2023-02-12T09:01:38.325Z,11.63
2023-02-12T09:04:06.243Z,11.32
2023-02-12T09:06:35.466Z,11.60
2023-02-12T09:09:02.881Z,11.52
2023-02-12T09:11:32.764Z,10.65
2023-02-12T09:14:02.002Z,11.80
2023-02-12T09:16:30.414Z,11.40
2023-02-12T09:18:57.511Z,10.43
2023-02-12T09:21:24.620Z,9.65
2023-02-12T09:23:51.638Z,9.80
2023-02-12T09:26:20.921Z,10.45
2023-02-12T09:28:49.772Z,10.63
2023-02-12T09:31:29.026Z,9.98
2023-02-12T09:33:59.638Z,9.82
2023-02-12T09:36:26.619Z,9.80
2023-02-12T09:38:54.231Z,9.73
2023-02-12T09:41:34.740Z,9.57
2023-02-12T09:44:10.171Z,10.20
2023-02-12T09:46:46.135Z,10.30
2023-02-12T09:49:43.146Z,10.00
2023-02-12T09:52:20.054Z,10.52
2023-02-12T09:54:49.558Z,10.35
2023-02-12T09:57:29.489Z,10.73
2023-02-12T09:59:59.944Z,9.85
2023-02-12T10:02:26.676Z,10.52
2023-02-12T10:05:01.153Z,10.40
2023-02-12T10:07:43.762Z,9.70
2023-02-12T10:10:25.469Z,10.13
2023-02-12T10:13:06.076Z,10.38
2023-02-12T10:15:52.638Z,10.23
2023-02-12T10:18:32.928Z,9.60
2023-02-12T10:21:25.961Z,9.70
2023-02-12T10:26:35.762Z,10.13
2023-02-12T10:29:14.594Z,9.55
2023-02-12T10:31:46.858Z,9.18
2023-02-12T10:34:21.996Z,9.43
2023-02-12T10:36:50.529Z,9.65
2023-02-12T10:39:23.987Z,9.85
2023-02-12T10:42:01.202Z,9.70
2023-02-12T10:44:28.262Z,9.57
2023-02-12T10:46:55.397Z,9.38
2023-02-12T10:49:22.484Z,9.77
2023-02-12T10:52:26.825Z,9.27
2023-02-12T10:54:53.547Z,8.20
2023-02-12T10:57:27.131Z,8.52
2023-02-12T10:59:59.406Z,8.60
2023-02-12T11:02:34.066Z,8.73
2023-02-12T11:05:22.842Z,8.13
2023-02-12T11:07:51.215Z,8.80
2023-02-12T11:10:39.833Z,8.13
2023-02-12T11:13:22.767Z,8.23
2023-02-12T11:15:49.961Z,8.82
2023-02-12T11:18:32.836Z,8.02
2023-02-12T11:21:11.609Z,8.30
2023-02-12T11:23:39.593Z,8.73
2023-02-12T11:26:07.576Z,8.48
2023-02-12T11:28:36.655Z,9.10
2023-02-12T11:31:22.314Z,8.68
2023-02-12T11:34:09.646Z,8.00
2023-02-12T11:36:40.699Z,8.60
2023-02-12T11:39:19.228Z,8.40
2023-02-12T11:41:51.833Z,8.55
2023-02-12T11:46:51.710Z,7.85
2023-02-12T11:49:23.827Z,9.10
2023-02-12T11:51:50.842Z,8.77
2023-02-12T11:54:22.633Z,8.95
2023-02-12T11:56:49.800Z,8.32
2023-02-12T11:59:34.080Z,7.70
2023-02-12T12:02:28.097Z,7.05
2023-02-12T12:05:07.898Z,7.28
2023-02-12T12:07:38.543Z,6.50
2023-02-12T12:10:17.695Z,6.60
2023-02-12T12:12:52.919Z,6.50
2023-02-12T12:15:58.562Z,6.32
2023-02-12T12:19:03.873Z,5.88
2023-02-12T12:21:48.597Z,6.13
2023-02-12T12:24:20.688Z,5.30
2023-02-12T12:27:00.224Z,5.43
2023-02-12T12:29:51.163Z,5.40
2023-02-12T12:32:19.543Z,5.35
2023-02-12T12:34:47.121Z,5.38
2023-02-12T12:37:29.611Z,4.97
2023-02-12T12:40:05.198Z,5.10
2023-02-12T12:42:40.788Z,4.88
2023-02-12T12:45:29.824Z,5.30
2023-02-12T12:48:15.833Z,4.43
2023-02-12T12:51:05.372Z,4.75
2023-02-12T12:54:01.927Z,4.72
2023-02-12T12:56:37.479Z,4.88
2023-02-12T12:59:16.710Z,4.43
2023-02-12T13:02:08.501Z,4.18
2023-02-12T13:04:47.528Z,4.70
2023-02-12T13:07:45.304Z,4.22
2023-02-12T13:10:40.113Z,4.50
2023-02-12T13:13:18.919Z,4.22
2023-02-12T13:15:56.168Z,4.40
2023-02-12T13:18:48.704Z,4.63
2023-02-12T13:21:37.635Z,4.38
2023-02-12T13:24:30.273Z,4.80
2023-02-12T13:27:00.897Z,4.57
2023-02-12T13:29:49.311Z,3.92
2023-02-12T13:32:37.622Z,4.53
2023-02-12T13:35:07.257Z,4.30
2023-02-12T13:37:45.427Z,4.35
2023-02-12T13:40:21.315Z,4.38
2023-02-12T13:42:53.316Z,4.30
2023-02-12T13:45:53.332Z,4.32
2023-02-12T13:48:22.875Z,3.85
2023-02-12T13:51:16.747Z,3.63
2023-02-12T13:54:01.536Z,3.75
2023-02-12T13:56:49.234Z,4.00
2023-02-12T13:59:31.317Z,3.67
2023-02-12T14:01:59.530Z,3.75
2023-02-12T14:04:52.466Z,3.95
2023-02-12T14:10:01.903Z,3.05
2023-02-12T14:12:33.638Z,3.33
2023-02-12T14:15:21.469Z,3.80
2023-02-12T14:18:15.024Z,3.13
2023-02-12T14:20:41.746Z,3.30
2023-02-12T14:23:28.544Z,2.95
2023-02-12T14:26:28.062Z,3.00
2023-02-12T14:28:56.702Z,3.20
2023-02-12T14:31:34.868Z,3.83
2023-02-12T14:34:11.201Z,3.78
2023-02-12T14:36:41.385Z,4.13
2023-02-12T14:39:20.316Z,4.35
2023-02-12T14:41:48.819Z,4.18
2023-02-12T14:44:18.273Z,4.28
2023-02-12T14:46:51.449Z,4.10
2023-02-12T14:49:34.127Z,4.53
2023-02-12T14:52:06.135Z,4.68
2023-02-12T14:54:37.446Z,5.00
2023-02-12T14:57:19.956Z,4.23
2023-02-12T14:59:48.439Z,4.60
2023-02-12T15:02:25.793Z,4.40
2023-02-12T15:04:56.358Z,5.10
2023-02-12T15:07:30.594Z,4.88
2023-02-12T15:10:36.913Z,5.63
2023-02-12T15:13:18.667Z,4.90
2023-02-12T15:15:50.658Z,5.95
2023-02-12T15:19:11.863Z,5.68
2023-02-12T15:21:39.070Z,5.57
2023-02-12T15:24:11.776Z,5.28
2023-02-12T15:26:48.071Z,4.70
2023-02-12T15:29:23.863Z,4.40
2023-02-12T15:31:56.869Z,4.05
2023-02-12T15:34:27.659Z,4.15
2023-02-12T15:37:03.544Z,4.15
2023-02-12T15:39:48.356Z,4.45
2023-02-12T15:42:36.242Z,4.15
2023-02-12T15:45:15.048Z,3.97
2023-02-12T15:47:43.210Z,3.70
2023-02-12T15:50:18.008Z,3.88
2023-02-12T15:52:46.796Z,3.97
2023-02-12T15:55:19.822Z,3.15
2023-02-12T15:58:01.121Z,3.20
2023-02-12T16:00:40.653Z,3.47
2023-02-12T16:03:19.121Z,4.00
2023-02-12T16:05:46.817Z,3.92
2023-02-12T16:08:18.878Z,3.78
2023-02-12T16:10:49.310Z,3.90
2023-02-12T16:13:29.213Z,3.15
2023-02-12T16:16:15.583Z,5.35
2023-02-12T16:18:43.369Z,3.90
2023-02-12T16:21:23.136Z,3.40
2023-02-12T16:23:51.491Z,4.28
2023-02-12T16:26:19.799Z,4.65
2023-02-12T16:28:49.522Z,3.63
2023-02-12T16:31:17.500Z,4.57
2023-02-12T16:33:49.572Z,9.18
2023-02-12T16:36:30.387Z,4.00
2023-02-12T16:39:03.739Z,3.25
2023-02-12T16:41:52.377Z,3.80
2023-02-12T16:44:27.453Z,3.40
2023-02-12T16:46:56.712Z,3.90
2023-02-12T16:49:25.892Z,3.17
2023-02-12T16:51:53.575Z,3.28
2023-02-12T16:54:31.973Z,3.08
2023-02-12T16:56:59.645Z,4.95
2023-02-12T16:59:26.648Z,4.15
2023-02-12T17:02:02.269Z,2.83
2023-02-12T17:04:29.472Z,2.92
2023-02-12T17:06:57.594Z,3.00
2023-02-12T17:09:24.647Z,3.03
2023-02-12T17:11:51.317Z,3.22
2023-02-12T17:14:20.033Z,3.28
2023-02-12T17:16:47.671Z,2.80
2023-02-12T17:19:14.630Z,2.95
2023-02-12T17:21:46.063Z,3.20
2023-02-12T17:24:26.041Z,3.28
2023-02-12T17:26:53.271Z,2.97
2023-02-12T17:29:22.266Z,2.80
2023-02-12T17:31:49.481Z,3.42
2023-02-12T17:34:16.716Z,3.30
2023-02-12T17:36:43.394Z,3.67
2023-02-12T17:39:12.389Z,3.45
2023-02-12T17:41:39.282Z,4.53
2023-02-12T17:44:06.079Z,4.22
2023-02-12T17:46:33.598Z,4.28
2023-02-12T17:49:00.420Z,6.55
2023-02-12T17:51:27.185Z,6.85
2023-02-12T17:53:53.887Z,8.32
2023-02-12T17:56:22.709Z,11.00
2023-02-12T17:58:49.704Z,6.28
2023-02-12T18:01:18.500Z,5.10
2023-02-12T18:03:45.316Z,5.30
2023-02-12T18:06:16.159Z,5.15
2023-02-12T18:08:43.392Z,4.53
2023-02-12T18:11:11.328Z,4.20
2023-02-12T18:13:38.451Z,4.60
2023-02-12T18:16:10.247Z,7.13
2023-02-12T18:18:39.975Z,6.75
2023-02-12T18:21:08.849Z,8.27
2023-02-12T18:23:35.741Z,15.48
2023-02-12T18:26:06.408Z,33.08
2023-02-12T18:28:33.520Z,30.92
2023-02-12T18:31:00.895Z,26.75
2023-02-12T18:33:28.551Z,23.40
2023-02-12T18:36:03.648Z,23.92
2023-02-12T18:38:30.790Z,17.55
2023-02-12T18:40:59.655Z,17.52
2023-02-12T18:43:27.279Z,14.65
2023-02-12T18:45:55.150Z,16.05
2023-02-12T18:48:22.068Z,10.52
2023-02-12T18:50:51.582Z,8.60
2023-02-12T18:53:18.750Z,8.60
2023-02-12T18:55:45.526Z,6.40
2023-02-12T18:58:12.409Z,6.03
2023-02-12T19:00:39.173Z,5.30
2023-02-12T19:03:05.847Z,5.13
2023-02-12T19:05:32.542Z,5.65
2023-02-12T19:07:59.322Z,5.85
2023-02-12T19:10:25.991Z,6.43
2023-02-12T19:12:52.857Z,8.13
2023-02-12T19:15:19.621Z,7.30
2023-02-12T19:17:46.362Z,6.70
2023-02-12T19:20:14.665Z,6.57
2023-02-12T19:22:42.390Z,6.10
2023-02-12T19:25:09.943Z,12.15
2023-02-12T19:27:36.945Z,14.43
2023-02-12T19:30:04.768Z,13.38
2023-02-12T19:32:31.418Z,10.65
2023-02-12T19:34:58.066Z,11.68
2023-02-12T19:37:24.797Z,9.10
2023-02-12T19:39:51.492Z,10.65
2023-02-12T19:42:18.167Z,10.40
2023-02-12T19:44:46.542Z,21.08
2023-02-12T19:47:13.511Z,17.70
2023-02-12T19:49:41.280Z,15.35
2023-02-12T19:52:08.166Z,15.10
2023-02-12T19:54:35.377Z,13.38
2023-02-12T19:57:03.719Z,10.75
2023-02-12T19:59:30.394Z,9.52
2023-02-12T20:01:57.129Z,8.70
2023-02-12T20:04:24.902Z,7.82
2023-02-12T20:06:52.327Z,7.05
2023-02-12T20:09:21.297Z,7.43
2023-02-12T20:11:48.219Z,7.60
2023-02-12T20:14:15.203Z,7.38
2023-02-12T20:16:44.543Z,7.40
2023-02-12T20:19:24.053Z,5.93
2023-02-12T20:21:55.180Z,6.28
2023-02-12T20:24:24.228Z,6.40
2023-02-12T20:26:51.141Z,6.07
2023-02-12T20:29:17.926Z,6.45
2023-02-12T20:31:46.143Z,7.38
2023-02-12T20:34:15.712Z,6.75
2023-02-12T20:36:45.676Z,7.97
2023-02-12T20:39:15.377Z,15.75
2023-02-12T20:41:42.372Z,11.85
2023-02-12T20:44:12.427Z,8.57
2023-02-12T20:46:42.555Z,6.88
2023-02-12T20:49:12.511Z,7.20
2023-02-12T20:51:39.379Z,12.00
2023-02-12T20:54:06.527Z,8.70
2023-02-12T20:56:35.738Z,8.38
2023-02-12T20:59:03.711Z,9.32
2023-02-12T21:01:34.553Z,17.25
2023-02-12T21:04:03.846Z,21.77
2023-02-12T21:06:31.134Z,23.35
2023-02-12T21:08:57.895Z,22.08
2023-02-12T21:11:25.730Z,12.63
2023-02-12T21:13:59.207Z,15.15
2023-02-12T21:16:29.429Z,11.00
2023-02-12T21:18:57.353Z,9.27
2023-02-12T21:21:27.169Z,9.93
2023-02-12T21:23:56.904Z,8.30
2023-02-12T21:26:25.140Z,8.95
2023-02-12T21:28:53.247Z,8.85
2023-02-12T21:31:28.354Z,9.45
2023-02-12T21:33:56.981Z,8.23
2023-02-12T21:36:27.874Z,8.38
2023-02-12T21:38:55.518Z,8.23
2023-02-12T21:41:26.576Z,9.82
2023-02-12T21:43:58.879Z,8.82
2023-02-12T21:46:26.660Z,9.45
2023-02-12T21:48:53.521Z,8.95
2023-02-12T21:51:23.483Z,13.18
2023-02-12T21:53:52.746Z,10.60
2023-02-12T21:56:20.362Z,10.13
2023-02-12T21:58:47.935Z,9.25
2023-02-12T22:01:17.540Z,9.73
2023-02-12T22:03:44.791Z,10.38
2023-02-12T22:06:13.281Z,9.60
2023-02-12T22:08:40.448Z,9.93
2023-02-12T22:11:09.758Z,10.50
2023-02-12T22:13:37.435Z,10.60
2023-02-12T22:16:09.106Z,10.02
2023-02-12T22:18:36.599Z,9.35
2023-02-12T22:21:05.199Z,10.90
2023-02-12T22:23:32.129Z,9.52
2023-02-12T22:26:10.122Z,10.23
2023-02-12T22:28:45.638Z,10.85
2023-02-12T22:31:14.644Z,11.02
2023-02-12T22:33:41.380Z,10.63
2023-02-12T22:36:09.516Z,10.80
2023-02-12T22:38:37.618Z,10.43
2023-02-12T22:41:05.775Z,10.10
2023-02-12T22:43:34.402Z,11.65
2023-02-12T22:46:01.454Z,10.63
2023-02-12T22:48:29.246Z,10.55
2023-02-12T22:50:57.316Z,11.07
2023-02-12T22:53:25.154Z,11.18
2023-02-12T22:55:52.720Z,10.43
2023-02-12T22:58:19.598Z,10.55
2023-02-12T23:00:46.305Z,10.27
2023-02-12T23:03:13.016Z,10.07
2023-02-12T23:05:39.878Z,9.48
2023-02-12T23:08:07.113Z,10.32
2023-02-12T23:10:33.935Z,10.52
2023-02-12T23:13:02.534Z,10.55
2023-02-12T23:15:30.137Z,10.50
2023-02-12T23:17:56.836Z,10.77
2023-02-12T23:20:23.759Z,10.07
2023-02-12T23:22:50.505Z,11.25
2023-02-12T23:25:17.285Z,11.15
2023-02-12T23:27:43.966Z,9.80
2023-02-12T23:30:11.128Z,10.30
2023-02-12T23:32:37.820Z,10.52
2023-02-12T23:35:04.795Z,10.10
2023-02-12T23:37:31.490Z,10.30
2023-02-12T23:39:58.163Z,9.82
2023-02-12T23:42:24.802Z,10.32
2023-02-12T23:44:51.466Z,11.02
2023-02-12T23:47:18.150Z,9.63
2023-02-12T23:49:45.140Z,11.18
2023-02-12T23:52:11.851Z,10.90
2023-02-12T23:54:38.605Z,10.27
2023-02-12T23:57:05.310Z,11.52
2023-02-12T23:59:31.992Z,11.48
